createdAt,value
2023-05-10T05:54:50.883Z,100978.84
2023-05-10T05:59:46.106Z,100983.19
2023-05-10T06:01:38.408Z,100967.56
2023-05-10T06:02:44.538Z,100980.69
2023-05-10T06:03:49.034Z,100980.94
2023-05-10T06:05:21.494Z,100971.34
2023-05-10T06:42:50.879Z,100961.69
2023-05-10T06:44:47.810Z,100956.56
2023-05-10T06:45:59.415Z,100961.38
2023-05-10T06:48:55.031Z,100963.25
2023-05-10T06:51:38.450Z,100963.75
2023-05-10T06:52:41.621Z,100962.03
2023-05-10T06:53:44.794Z,100954.88
2023-05-10T06:56:17.270Z,100961.00
2023-05-10T06:58:12.636Z,100957.88
2023-05-10T06:59:22.849Z,100957.25
2023-05-10T07:00:28.445Z,100955.22
2023-05-10T07:02:39.816Z,100963.59
2023-05-10T07:04:11.787Z,100953.69
2023-05-10T07:05:38.047Z,100954.53
2023-05-10T07:06:48.675Z,100955.72
2023-05-10T07:07:51.171Z,100956.88
2023-05-10T07:08:54.736Z,100943.94
2023-05-10T07:10:02.750Z,100945.63
2023-05-10T07:11:12.066Z,100952.75
2023-05-10T07:12:19.661Z,100949.72
2023-05-10T07:13:24.364Z,100950.16
2023-05-10T07:14:27.168Z,100950.09
2023-05-10T07:15:33.585Z,100952.63
2023-05-10T07:17:02.833Z,100950.56
2023-05-10T07:18:06.972Z,100951.38
2023-05-10T07:19:09.315Z,100943.63
2023-05-10T07:20:13.062Z,100945.38
2023-05-10T07:21:17.311Z,100941.34
2023-05-10T07:22:20.463Z,100945.84
2023-05-10T07:23:22.614Z,100938.47
2023-05-10T07:27:56.292Z,100938.94
2023-05-10T07:30:38.177Z,100938.38
2023-05-10T07:32:12.468Z,100940.75
2023-05-10T07:33:17.488Z,100936.00
2023-05-10T07:34:23.266Z,100940.38
2023-05-10T07:35:28.797Z,100936.63
2023-05-10T07:36:33.782Z,100936.63
2023-05-10T07:37:36.113Z,100929.63
2023-05-10T07:38:40.921Z,100926.56
2023-05-10T07:39:43.086Z,100935.22
2023-05-10T07:40:45.370Z,100931.78
2023-05-10T07:41:48.586Z,100934.31
2023-05-10T07:42:50.537Z,100921.94
2023-05-10T07:43:52.546Z,100927.28
2023-05-10T07:44:54.904Z,100938.66
2023-05-10T07:45:58.841Z,100932.59
2023-05-10T07:47:01.198Z,100927.47
2023-05-10T07:48:03.791Z,100929.97
2023-05-10T07:49:05.872Z,100925.41
2023-05-10T07:50:08.734Z,100928.72
2023-05-10T07:51:13.221Z,100926.72
2023-05-10T07:52:15.174Z,100926.72
2023-05-10T07:53:17.269Z,100923.06
2023-05-10T07:54:19.322Z,100929.31
2023-05-10T07:55:22.447Z,100922.53
2023-05-10T07:56:30.653Z,100929.16
2023-05-10T07:57:32.672Z,100922.72
2023-05-10T07:58:34.759Z,100916.75
2023-05-10T07:59:36.781Z,100919.81
2023-05-10T08:00:40.595Z,100922.34
2023-05-10T08:01:43.669Z,100918.59
2023-05-10T08:02:45.845Z,100920.31
2023-05-10T08:03:48.140Z,100915.50
2023-05-10T08:04:50.125Z,100909.78
2023-05-10T08:05:51.979Z,100927.78
2023-05-10T08:06:54.038Z,100920.72
2023-05-10T08:07:57.075Z,100922.91
2023-05-10T08:09:00.037Z,100918.50
2023-05-10T08:10:07.349Z,100920.06
2023-05-10T08:11:36.633Z,100912.47
2023-05-10T08:12:41.626Z,100911.31
2023-05-10T08:13:46.376Z,100909.38
2023-05-10T08:15:14.187Z,100910.75
2023-05-10T08:16:18.361Z,100910.44
2023-05-10T08:17:21.254Z,100908.50
2023-05-10T08:18:25.219Z,100906.13
2023-05-10T08:19:27.402Z,100907.13
2023-05-10T08:20:29.498Z,100911.59
2023-05-10T08:21:32.527Z,100900.47
2023-05-10T08:22:34.658Z,100907.59
2023-05-10T08:23:37.009Z,100906.16
2023-05-10T08:24:39.812Z,100902.94
2023-05-10T08:25:42.206Z,100901.81
2023-05-10T08:26:50.833Z,100899.19
2023-05-10T08:27:52.879Z,100896.16
2023-05-10T08:28:55.706Z,100892.16
2023-05-10T08:30:07.167Z,100896.19
2023-05-10T08:33:25.442Z,100892.25
2023-05-10T08:34:40.676Z,100894.56
2023-05-10T08:35:47.724Z,100897.06
2023-05-10T08:36:50.972Z,100890.00
2023-05-10T08:37:54.519Z,100896.09
2023-05-10T08:39:13.521Z,100898.41
2023-05-10T08:40:21.846Z,100886.66
2023-05-10T08:41:30.237Z,100885.47
2023-05-10T08:42:47.788Z,100887.84
2023-05-10T08:45:20.147Z,100885.88
2023-05-10T08:46:24.460Z,100883.59
2023-05-10T08:47:30.838Z,100889.59
2023-05-10T08:49:00.230Z,100882.44
2023-05-10T08:52:50.602Z,100880.22
2023-05-10T08:54:01.559Z,100883.16
2023-05-10T09:29:44.466Z,100840.25
2023-05-10T09:32:27.093Z,100832.81
2023-05-10T09:50:12.376Z,100819.28
2023-05-10T09:51:30.573Z,100815.59
2023-05-10T09:52:48.798Z,100823.22
2023-05-10T09:54:14.381Z,100818.13
2023-05-10T09:55:17.543Z,100820.38
2023-05-10T09:57:17.277Z,100817.44
2023-05-10T09:58:32.212Z,100815.53
2023-05-10T09:59:44.171Z,100813.41
2023-05-10T10:02:13.586Z,100809.34
2023-05-10T10:03:17.869Z,100810.78
2023-05-10T10:04:21.562Z,100816.47
2023-05-10T10:05:29.885Z,100811.78
2023-05-10T10:06:42.551Z,100808.75
2023-05-10T10:07:44.642Z,100807.00
2023-05-10T10:08:47.272Z,100803.41
2023-05-10T10:09:49.516Z,100808.50
2023-05-10T10:10:51.711Z,100803.84
2023-05-10T10:11:56.525Z,100804.78
2023-05-10T10:12:58.790Z,100804.00
2023-05-10T10:14:01.293Z,100791.00
2023-05-10T10:15:03.400Z,100793.69
2023-05-10T10:16:09.651Z,100793.81
2023-05-10T10:17:13.148Z,100796.94
2023-05-10T10:18:16.563Z,100791.50
2023-05-10T10:19:24.921Z,100792.38
2023-05-10T10:20:28.039Z,100795.84
2023-05-10T10:21:30.468Z,100791.56
2023-05-10T10:22:32.659Z,100788.84
2023-05-10T10:23:35.569Z,100789.69
2023-05-10T10:24:37.817Z,100796.44
2023-05-10T10:25:40.385Z,100788.91
2023-05-10T10:26:44.491Z,100785.53
2023-05-10T10:27:53.272Z,100788.25
2023-05-10T10:29:06.258Z,100784.97
2023-05-10T10:30:34.434Z,100788.09
2023-05-10T10:32:31.254Z,100783.41
2023-05-10T10:33:48.671Z,100785.03
2023-05-10T10:34:50.981Z,100786.06
2023-05-10T10:35:54.575Z,100780.19
2023-05-10T10:36:59.360Z,100777.19
2023-05-10T10:38:01.657Z,100784.47
2023-05-10T10:39:10.650Z,100786.19
2023-05-10T10:40:24.977Z,100776.09
2023-05-10T10:41:50.593Z,100778.47
2023-05-10T10:42:52.933Z,100768.50
2023-05-10T10:44:34.968Z,100766.28
2023-05-10T10:45:42.081Z,100768.13
2023-05-10T10:47:15.454Z,100769.53
2023-05-10T10:48:24.489Z,100766.28
2023-05-10T10:49:26.313Z,100766.00
2023-05-10T10:50:28.491Z,100763.47
2023-05-10T10:51:32.371Z,100766.44
2023-05-10T10:52:37.667Z,100768.19
2023-05-10T10:53:42.435Z,100762.41
2023-05-10T10:57:27.743Z,100761.59
2023-05-10T10:58:33.284Z,100765.81
2023-05-10T10:59:35.484Z,100759.50
2023-05-10T11:00:38.864Z,100760.50
2023-05-10T11:01:45.626Z,100760.91
2023-05-10T11:03:07.724Z,100761.06
2023-05-10T11:04:16.708Z,100752.91
2023-05-10T11:05:34.092Z,100762.47
2023-05-10T11:06:37.452Z,100757.19
2023-05-10T11:07:52.990Z,100757.88
2023-05-10T11:08:56.190Z,100757.16
2023-05-10T11:10:05.715Z,100752.25
2023-05-10T11:11:11.466Z,100745.69
2023-05-10T11:12:14.175Z,100743.34
2023-05-10T11:13:16.582Z,100746.22
2023-05-10T11:14:23.626Z,100738.09
2023-05-10T11:15:31.531Z,100740.53
2023-05-10T11:16:49.461Z,100744.22
2023-05-10T11:17:58.922Z,100742.13
2023-05-10T11:19:08.006Z,100739.94
2023-05-10T11:20:16.464Z,100745.44
2023-05-10T11:21:22.398Z,100743.03
2023-05-10T11:22:27.231Z,100735.72
2023-05-10T11:23:48.841Z,100736.13
2023-05-10T11:24:59.790Z,100740.38
2023-05-10T11:26:04.214Z,100735.50
2023-05-10T11:27:08.105Z,100736.06
2023-05-10T11:28:10.966Z,100731.00
2023-05-10T11:29:15.000Z,100732.03
2023-05-10T11:30:18.971Z,100733.72
2023-05-10T11:31:22.304Z,100730.34
2023-05-10T11:34:35.956Z,100730.31
2023-05-10T11:35:43.008Z,100730.19
2023-05-10T11:36:52.921Z,100727.19
2023-05-10T11:37:55.205Z,100728.16
2023-05-10T11:38:58.110Z,100727.53
2023-05-10T11:39:59.972Z,100728.50
2023-05-10T11:41:05.678Z,100725.50
2023-05-10T11:42:14.062Z,100719.38
2023-05-10T11:43:16.052Z,100724.44
2023-05-10T11:44:18.292Z,100712.63
2023-05-10T11:45:20.526Z,100710.25
2023-05-10T11:46:24.679Z,100712.19
2023-05-10T11:47:30.415Z,100716.06
2023-05-10T11:48:33.133Z,100718.75
2023-05-10T11:49:35.838Z,100717.56
2023-05-10T11:50:37.961Z,100710.38
2023-05-10T11:51:40.509Z,100713.88
2023-05-10T11:52:44.183Z,100715.47
2023-05-10T11:53:47.045Z,100710.16
2023-05-10T11:54:53.428Z,100715.09
2023-05-10T11:55:55.492Z,100712.41
2023-05-10T11:56:58.457Z,100707.53
2023-05-10T11:58:02.733Z,100707.75
2023-05-10T11:59:04.816Z,100715.28
2023-05-10T12:00:07.444Z,100706.91
2023-05-10T12:01:11.519Z,100703.53
2023-05-10T12:02:16.748Z,100701.59
2023-05-10T12:03:20.311Z,100708.97
2023-05-10T12:04:22.990Z,100702.50
2023-05-10T12:05:27.069Z,100696.41
2023-05-10T12:06:32.293Z,100703.63
2023-05-10T12:07:40.764Z,100699.84
2023-05-10T12:08:47.308Z,100696.69
2023-05-10T12:10:06.298Z,100697.03
2023-05-10T12:11:11.499Z,100695.47
2023-05-10T12:12:18.184Z,100693.88
2023-05-10T12:13:22.197Z,100694.69
2023-05-10T12:14:25.735Z,100697.69
2023-05-10T12:15:29.079Z,100690.50
2023-05-10T12:16:31.598Z,100689.72
2023-05-10T12:17:33.946Z,100697.16
2023-05-10T12:18:41.270Z,100692.78
2023-05-10T12:19:44.694Z,100688.13
2023-05-10T12:20:46.751Z,100693.94
2023-05-10T12:21:52.069Z,100693.53
2023-05-10T12:23:00.511Z,100696.69
2023-05-10T12:24:04.852Z,100689.63
2023-05-10T12:25:09.304Z,100683.25
2023-05-10T12:26:11.742Z,100686.25
2023-05-10T12:27:19.037Z,100687.88
2023-05-10T12:28:23.166Z,100687.44
2023-05-10T12:29:25.093Z,100688.56
2023-05-10T12:30:29.829Z,100684.38
2023-05-10T12:31:31.800Z,100680.19
2023-05-10T12:32:45.703Z,100679.63
2023-05-10T12:33:48.623Z,100685.56
2023-05-10T12:34:57.559Z,100679.22
2023-05-10T12:36:00.443Z,100684.75
2023-05-10T12:37:03.899Z,100676.72
2023-05-10T12:38:28.277Z,100681.66
2023-05-10T12:39:42.813Z,100686.63
2023-05-10T12:40:44.910Z,100677.28
2023-05-10T12:41:47.429Z,100682.09
2023-05-10T12:42:54.899Z,100681.84
2023-05-10T12:44:00.210Z,100678.44
2023-05-10T12:45:03.726Z,100685.66
2023-05-10T12:46:12.644Z,100677.34
2023-05-10T12:47:14.698Z,100675.41
2023-05-10T12:48:16.836Z,100677.25
2023-05-10T12:49:20.009Z,100676.03
2023-05-10T12:50:22.117Z,100679.75
2023-05-10T12:51:24.515Z,100687.66
2023-05-10T12:52:27.272Z,100691.41
2023-05-10T12:53:29.204Z,100690.66
2023-05-10T12:54:31.819Z,100689.25
2023-05-10T12:55:34.161Z,100679.63
2023-05-10T12:56:36.466Z,100678.97
2023-05-10T12:57:38.562Z,100673.63
2023-05-10T12:58:43.265Z,100680.63
2023-05-10T12:59:50.532Z,100679.75
2023-05-10T13:00:53.772Z,100680.41
2023-05-10T13:01:55.857Z,100675.63
2023-05-10T13:02:59.019Z,100670.38
2023-05-10T13:04:01.516Z,100668.84
2023-05-10T13:05:03.948Z,100674.41
2023-05-10T13:06:07.631Z,100674.59
2023-05-10T13:07:10.361Z,100667.44
2023-05-10T13:08:12.526Z,100681.56
2023-05-10T13:09:14.485Z,100673.47
2023-05-10T13:10:17.669Z,100673.91
2023-05-10T13:11:20.932Z,100668.31
2023-05-10T13:12:25.692Z,100670.38
2023-05-10T13:13:28.166Z,100667.38
2023-05-10T13:14:31.438Z,100664.53
2023-05-10T13:15:34.245Z,100660.22
2023-05-10T13:16:36.304Z,100668.31
2023-05-10T13:17:41.772Z,100662.28
2023-05-10T13:18:43.769Z,100660.81
2023-05-10T13:19:45.865Z,100660.22
2023-05-10T13:20:48.094Z,100661.13
2023-05-10T13:21:49.986Z,100664.88
2023-05-10T13:22:57.021Z,100666.19
2023-05-10T13:24:02.314Z,100670.97
2023-05-10T13:25:11.895Z,100672.28
2023-05-10T13:44:26.524Z,100661.09
2023-05-10T16:29:15.010Z,100610.78
2023-05-10T16:31:41.310Z,100609.19
2023-05-10T17:12:03.100Z,100619.31
2023-05-10T17:21:27.805Z,100615.34
2023-05-10T17:35:49.164Z,100628.97
2023-05-10T17:42:51.689Z,100632.97
2023-05-10T17:48:05.754Z,100643.38
2023-05-10T17:50:06.689Z,100643.38
2023-05-10T17:51:33.241Z,100640.16
2023-05-10T17:52:51.271Z,100637.41
2023-05-10T18:02:20.996Z,100635.06
2023-05-10T18:04:24.873Z,100641.81
2023-05-10T18:07:49.116Z,100637.84
2023-05-10T18:13:22.602Z,100644.25
2023-05-10T18:14:54.736Z,100638.69
2023-05-10T18:16:51.376Z,100644.63
2023-05-10T18:18:28.479Z,100647.44
2023-05-10T18:20:29.413Z,100643.44
2023-05-10T18:21:48.371Z,100643.44
2023-05-10T18:23:12.193Z,100637.88
2023-05-10T18:24:40.176Z,100639.47
2023-05-10T18:25:44.488Z,100641.06
2023-05-10T18:26:55.548Z,100647.44
2023-05-10T18:28:04.449Z,100644.25
2023-05-10T18:34:47.337Z,100637.91
2023-05-10T18:44:34.663Z,100639.47
2023-05-10T18:45:42.381Z,100640.25
2023-05-10T18:46:52.148Z,100638.66
2023-05-10T18:48:09.661Z,100642.25
2023-05-10T18:49:13.400Z,100645.03
2023-05-10T18:50:17.426Z,100642.66
2023-05-10T18:51:23.429Z,100648.25
2023-05-10T18:52:25.700Z,100636.69
2023-05-10T18:53:39.620Z,100640.25
2023-05-10T18:54:49.738Z,100639.47
2023-05-10T18:56:24.741Z,100643.44
2023-05-10T18:57:42.952Z,100646.66
2023-05-10T19:01:36.318Z,100643.44
2023-05-10T19:03:14.946Z,100643.84
2023-05-10T19:04:50.461Z,100645.84
2023-05-10T19:12:05.243Z,100649.81
2023-05-10T19:13:36.066Z,100643.84
2023-05-10T19:15:12.464Z,100647.84
2023-05-10T19:16:29.270Z,100646.63
2023-05-10T19:17:40.855Z,100646.66
2023-05-10T19:19:24.356Z,100639.88
2023-05-10T19:20:40.847Z,100641.84
2023-05-10T19:29:02.241Z,100640.28
2023-05-10T19:30:41.361Z,100647.41
2023-05-10T19:31:58.678Z,100645.84
2023-05-10T19:33:19.555Z,100641.47
2023-05-10T19:34:59.971Z,100652.19
2023-05-10T19:36:20.092Z,100649.81
2023-05-10T19:37:34.703Z,100652.19
2023-05-10T20:29:03.903Z,100651.78
2023-05-10T21:37:57.477Z,100646.19
